Time;durP1;ratioP1;P1;durP2;ratioP2;P2;SDS_P1;SDS_P2;PMS_P1;PMS_P2;Temp;Humidity;BMP_temperature;BMP_pressure;BME280_temperature;BME280_humidity;BME280_pressure;Samples;Min_cycle;Max_cycle;Signal;HPM_P1;HPM_P2
2022/12/14 00:00:58;;;;;;;23.90;11.73;;;-0.90;72.40;;;;;;5024321;28;20308;-74
2022/12/14 00:03:24;;;;;;;28.27;11.63;;;-0.80;72.40;;;;;;5027169;28;20198;-75
2022/12/14 00:05:50;;;;;;;27.37;12.40;;;-0.80;72.40;;;;;;5014888;28;20182;-74
2022/12/14 00:08:17;;;;;;;23.63;11.53;;;-0.80;72.30;;;;;;5024282;28;20248;-74
2022/12/14 00:10:43;;;;;;;26.02;12.30;;;-0.80;72.30;;;;;;5025389;28;20213;-75
2022/12/14 00:13:13;;;;;;;21.33;10.38;;;-0.80;72.40;;;;;;5025121;28;20216;-75
2022/12/14 00:15:39;;;;;;;24.45;12.00;;;-0.80;72.40;;;;;;5024301;28;20185;-74
2022/12/14 00:18:05;;;;;;;20.90;11.37;;;-0.80;72.30;;;;;;5025572;28;20184;-75
2022/12/14 00:20:32;;;;;;;21.10;10.35;;;-0.80;72.40;;;;;;5024672;28;20255;-75
2022/12/14 00:22:58;;;;;;;26.02;11.77;;;-0.80;72.40;;;;;;5026287;28;20280;-75
2022/12/14 00:25:24;;;;;;;25.30;11.73;;;-0.80;72.70;;;;;;5030849;28;20630;-74
2022/12/14 00:27:50;;;;;;;26.20;12.32;;;-0.70;72.60;;;;;;5022704;28;20240;-74
2022/12/14 00:30:19;;;;;;;24.17;12.30;;;-0.80;72.40;;;;;;5029034;28;20209;-74
2022/12/14 00:32:46;;;;;;;31.33;13.07;;;-0.80;72.70;;;;;;5023740;28;20209;-75
2022/12/14 00:35:14;;;;;;;25.25;12.70;;;-0.80;72.70;;;;;;5020066;28;20200;-75
2022/12/14 00:37:40;;;;;;;23.80;11.85;;;-0.80;72.90;;;;;;5025426;28;20251;-74
2022/12/14 00:40:07;;;;;;;23.00;11.47;;;-0.80;72.90;;;;;;5029921;28;20754;-75
2022/12/14 00:42:33;;;;;;;26.83;12.38;;;-0.80;72.90;;;;;;5026045;28;20189;-75
2022/12/14 00:44:59;;;;;;;24.88;11.07;;;-0.80;73.00;;;;;;5030655;28;20703;-75
2022/12/14 00:47:25;;;;;;;28.27;12.00;;;-0.90;73.00;;;;;;5025091;28;20190;-74
2022/12/14 00:49:50;;;;;;;26.88;12.90;;;-0.90;73.20;;;;;;5029728;28;20624;-75
2022/12/14 00:52:16;;;;;;;23.23;12.60;;;-1.00;73.30;;;;;;5046386;28;20205;-74
2022/12/14 00:54:41;;;;;;;24.57;11.93;;;-1.00;73.70;;;;;;5031079;28;20188;-74
2022/12/14 00:57:07;;;;;;;24.50;11.40;;;-0.90;73.60;;;;;;5022220;28;20632;-74
2022/12/14 00:59:33;;;;;;;27.07;11.70;;;-0.90;73.60;;;;;;5024058;28;20664;-74
2022/12/14 01:01:58;;;;;;;22.17;11.10;;;-0.80;73.30;;;;;;5026079;28;20421;-75
2022/12/14 01:04:24;;;;;;;19.57;11.53;;;-0.90;73.30;;;;;;5035210;28;20220;-75
2022/12/14 01:06:51;;;;;;;31.90;13.25;;;-0.90;73.20;;;;;;5022717;28;20197;-75
2022/12/14 01:09:19;;;;;;;27.10;11.73;;;-1.00;73.50;;;;;;5030280;28;20328;-74
2022/12/14 01:11:45;;;;;;;25.60;11.40;;;-1.10;73.60;;;;;;5027038;28;20977;-74
2022/12/14 01:14:15;;;;;;;21.80;12.33;;;-1.00;73.70;;;;;;5024202;28;20296;-74
2022/12/14 01:16:41;;;;;;;25.98;13.27;;;-1.00;73.70;;;;;;5018875;28;20268;-75
2022/12/14 01:19:07;;;;;;;28.60;13.53;;;-0.90;73.70;;;;;;5022106;28;20269;-74
2022/12/14 01:21:33;;;;;;;34.43;13.30;;;-0.80;73.70;;;;;;5018098;28;20940;-75
2022/12/14 01:24:02;;;;;;;29.50;12.20;;;-0.80;73.60;;;;;;5024767;28;20193;-74
2022/12/14 01:26:29;;;;;;;21.85;11.57;;;-0.70;73.60;;;;;;5018998;28;20194;-73
2022/12/14 01:28:57;;;;;;;27.83;12.13;;;-0.70;73.30;;;;;;5025427;28;20195;-74
2022/12/14 01:31:34;;;;;;;29.17;12.38;;;-0.60;73.60;;;;;;5028071;28;20205;-74
2022/12/14 01:34:00;;;;;;;24.13;11.95;;;-0.60;73.30;;;;;;5018889;28;20224;-74
2022/12/14 01:36:32;;;;;;;23.97;12.63;;;-0.60;73.30;;;;;;5029430;28;20177;-74
2022/12/14 01:39:05;;;;;;;27.77;12.18;;;-0.50;73.30;;;;;;5022085;28;20428;-74
2022/12/14 01:41:38;;;;;;;29.83;12.32;;;-0.60;73.20;;;;;;5025340;28;20232;-72
2022/12/14 01:44:23;;;;;;;24.80;11.50;;;-0.60;73.30;;;;;;5020799;28;20660;-73
2022/12/14 01:47:06;;;;;;;24.50;11.90;;;-0.70;73.30;;;;;;5021313;28;20655;-73
2022/12/14 01:49:42;;;;;;;21.95;11.63;;;-0.80;73.50;;;;;;5022384;28;20177;-73
2022/12/14 01:52:34;;;;;;;27.67;12.27;;;-0.80;73.60;;;;;;5020481;28;20208;-73
2022/12/14 01:55:23;;;;;;;27.30;12.40;;;-0.80;73.70;;;;;;5021179;28;20217;-73
2022/12/14 01:57:52;;;;;;;23.20;12.30;;;-0.80;73.90;;;;;;5017918;28;20182;-73
2022/12/14 02:00:18;;;;;;;27.83;12.43;;;-0.80;74.00;;;;;;5022174;28;20212;-74
2022/12/14 02:02:50;;;;;;;25.25;12.35;;;-0.70;74.00;;;;;;5022014;28;20216;-73
2022/12/14 02:05:17;;;;;;;30.10;13.15;;;-0.60;73.90;;;;;;5024631;28;20239;-74
2022/12/14 02:07:44;;;;;;;22.45;12.32;;;-0.50;73.60;;;;;;5025074;28;20197;-72
2022/12/14 02:10:10;;;;;;;26.88;13.23;;;-0.60;73.30;;;;;;5023435;28;20240;-74
2022/12/14 02:12:41;;;;;;;27.25;12.70;;;-0.70;73.20;;;;;;5021014;28;20205;-74
2022/12/14 02:15:07;;;;;;;24.95;11.75;;;-0.70;73.70;;;;;;5024335;28;20219;-74
2022/12/14 02:17:33;;;;;;;30.17;13.73;;;-0.60;73.60;;;;;;5029833;28;20672;-74
2022/12/14 02:20:00;;;;;;;26.17;12.70;;;-0.60;73.20;;;;;;5026570;28;20468;-74
2022/12/14 02:22:45;;;;;;;26.25;13.05;;;-0.70;73.30;;;;;;5028838;28;20264;-75
2022/12/14 02:25:31;;;;;;;30.77;14.13;;;-0.70;73.70;;;;;;5026772;28;20283;-73
2022/12/14 02:28:34;;;;;;;31.45;13.77;;;-0.60;73.60;;;;;;5016835;28;20529;-74
2022/12/14 02:31:14;;;;;;;27.77;12.60;;;-0.60;73.70;;;;;;5022279;28;20585;-74
2022/12/14 02:33:58;;;;;;;28.30;13.35;;;-0.60;73.70;;;;;;5021109;28;20197;-75
2022/12/14 02:36:32;;;;;;;26.52;13.40;;;-0.60;73.90;;;;;;5026364;28;20528;-75
2022/12/14 02:39:22;;;;;;;24.83;13.18;;;-0.70;73.90;;;;;;5026461;28;20249;-74
2022/12/14 02:42:06;;;;;;;36.03;15.48;;;-0.70;74.00;;;;;;5041426;28;20715;-75
2022/12/14 02:44:59;;;;;;;30.88;14.55;;;-0.70;74.20;;;;;;5026110;28;20251;-73
2022/12/14 02:47:36;;;;;;;27.10;14.00;;;-0.70;74.30;;;;;;5024709;28;20177;-73
2022/12/14 02:50:22;;;;;;;25.80;13.65;;;-0.70;74.30;;;;;;5023709;28;20213;-74
2022/12/14 02:53:03;;;;;;;31.05;15.00;;;-0.60;74.20;;;;;;5027815;28;20570;-74
2022/12/14 02:55:37;;;;;;;27.02;12.98;;;-0.60;74.50;;;;;;5022021;28;20189;-74
2022/12/14 02:58:12;;;;;;;23.70;13.35;;;-0.60;74.30;;;;;;5025352;28;20602;-76
2022/12/14 03:00:38;;;;;;;31.80;14.18;;;-0.70;74.50;;;;;;5026052;28;20288;-73
2022/12/14 03:03:04;;;;;;;25.33;14.53;;;-0.60;74.60;;;;;;5026774;28;20327;-74
2022/12/14 03:05:31;;;;;;;27.75;15.15;;;-0.60;74.60;;;;;;5030987;28;20196;-74
2022/12/14 03:08:02;;;;;;;36.47;15.70;;;-0.60;74.60;;;;;;5024779;28;20189;-74
2022/12/14 03:10:47;;;;;;;24.65;13.02;;;-0.60;74.80;;;;;;5030042;28;20287;-74
2022/12/14 03:13:39;;;;;;;33.45;14.45;;;-0.50;74.50;;;;;;5024317;28;20217;-74
2022/12/14 03:16:07;;;;;;;34.00;13.52;;;-0.50;74.30;;;;;;5027306;28;20218;-75
2022/12/14 03:18:37;;;;;;;32.53;14.40;;;-0.50;74.50;;;;;;5024264;28;20174;-75
2022/12/14 03:21:10;;;;;;;26.52;14.35;;;-0.60;74.60;;;;;;5026759;28;20220;-75
2022/12/14 03:23:38;;;;;;;23.95;13.50;;;-0.60;74.80;;;;;;5027229;28;20185;-75
2022/12/14 03:26:42;;;;;;;29.50;14.27;;;-0.60;74.80;;;;;;5026813;28;20186;-74
2022/12/14 03:29:17;;;;;;;32.10;16.83;;;-0.60;75.20;;;;;;4971561;28;20187;-74
2022/12/14 03:31:48;;;;;;;30.73;15.77;;;-0.60;75.40;;;;;;4969549;28;20306;-74
2022/12/14 03:34:16;;;;;;;30.70;14.10;;;-0.60;75.50;;;;;;4970618;28;20203;-75
2022/12/14 03:37:09;;;;;;;30.00;14.93;;;-0.50;75.70;;;;;;4971819;28;20192;-75
2022/12/14 03:39:36;;;;;;;31.17;15.95;;;-0.50;75.80;;;;;;4970484;28;20191;-75
2022/12/14 03:42:24;;;;;;;28.77;15.48;;;-0.50;75.90;;;;;;4971967;28;20267;-75
2022/12/14 03:45:15;;;;;;;25.40;14.85;;;-0.50;75.90;;;;;;4969237;28;20274;-75
2022/12/14 03:48:12;;;;;;;38.13;16.75;;;-0.50;76.20;;;;;;4969915;28;20179;-73
2022/12/14 03:50:46;;;;;;;35.85;16.58;;;-0.60;76.50;;;;;;4969945;28;20310;-73
2022/12/14 03:53:25;;;;;;;33.83;15.40;;;-0.60;76.50;;;;;;4971594;28;20328;-74
2022/12/14 03:56:03;;;;;;;27.60;15.25;;;-0.60;77.00;;;;;;4956135;28;20240;-74
2022/12/14 03:59:02;;;;;;;33.28;17.65;;;-0.60;77.30;;;;;;4968863;28;20192;-73
2022/12/14 04:01:37;;;;;;;30.63;15.95;;;-0.60;77.30;;;;;;4969480;28;20237;-73
2022/12/14 04:04:11;;;;;;;30.48;16.45;;;-0.70;77.30;;;;;;5020015;28;20740;-74
2022/12/14 04:06:49;;;;;;;31.10;16.27;;;-0.80;77.40;;;;;;5025346;28;20189;-74
2022/12/14 04:09:36;;;;;;;29.13;15.73;;;-0.80;77.70;;;;;;5024101;28;20652;-74
2022/12/14 04:21:15;;;;;;;35.35;17.92;;;-0.60;77.70;;;;;;5018100;28;20220;-75
2022/12/14 04:26:57;;;;;;;32.03;15.93;;;-0.60;77.80;;;;;;4992384;28;20198;-75
2022/12/14 04:32:21;;;;;;;33.15;15.55;;;-0.80;78.00;;;;;;5019880;28;20750;-75
2022/12/14 04:34:52;;;;;;;34.08;16.30;;;-0.70;78.10;;;;;;5025742;28;20181;-74
2022/12/14 04:37:21;;;;;;;36.40;18.02;;;-0.70;78.00;;;;;;5022922;28;20190;-75
2022/12/14 04:39:55;;;;;;;32.42;16.80;;;-0.60;78.10;;;;;;5027572;28;20270;-74
2022/12/14 04:42:27;;;;;;;38.03;17.83;;;-0.60;77.80;;;;;;5024500;28;20190;-74
2022/12/14 04:44:59;;;;;;;32.08;16.15;;;-0.60;78.00;;;;;;5026310;28;20181;-75
2022/12/14 04:47:29;;;;;;;34.28;17.67;;;-0.60;77.80;;;;;;5023271;28;20269;-74
2022/12/14 04:50:02;;;;;;;31.23;15.65;;;-0.70;77.80;;;;;;5032766;28;20209;-75
2022/12/14 04:52:44;;;;;;;35.30;16.35;;;-0.60;78.00;;;;;;5024802;28;20247;-75
2022/12/14 04:55:43;;;;;;;39.45;18.83;;;-0.60;77.80;;;;;;5033493;28;20190;-75
2022/12/14 04:58:18;;;;;;;38.35;18.38;;;-0.60;78.00;;;;;;5029671;28;20189;-75
2022/12/14 05:00:55;;;;;;;37.50;16.90;;;-0.50;77.80;;;;;;5025356;28;20248;-74
2022/12/14 05:03:31;;;;;;;31.48;16.27;;;-0.50;77.70;;;;;;5026929;28;20536;-74
2022/12/14 05:06:32;;;;;;;30.30;16.70;;;-0.50;77.60;;;;;;5022132;28;20185;-73
2022/12/14 05:09:16;;;;;;;34.70;16.83;;;-0.50;77.40;;;;;;4950936;29;20203;-74
2022/12/14 05:11:59;;;;;;;35.97;16.55;;;-0.50;77.40;;;;;;4949570;28;20220;-75
2022/12/14 05:14:36;;;;;;;33.00;16.65;;;-0.40;77.60;;;;;;4950504;29;20208;-75
2022/12/14 05:17:04;;;;;;;38.80;17.65;;;-0.50;77.60;;;;;;4950408;29;20200;-74
2022/12/14 05:19:29;;;;;;;34.58;16.95;;;-0.40;77.60;;;;;;4949321;29;20328;-75
2022/12/14 05:21:55;;;;;;;32.57;15.70;;;-0.40;77.60;;;;;;4948418;28;20274;-75
2022/12/14 05:24:21;;;;;;;31.70;16.20;;;-0.40;77.40;;;;;;4957683;29;20204;-75
2022/12/14 05:26:46;;;;;;;32.13;16.90;;;-0.40;77.30;;;;;;4960783;29;20264;-74
2022/12/14 05:29:12;;;;;;;34.80;17.60;;;-0.40;77.40;;;;;;4960701;29;20214;-74
2022/12/14 05:31:38;;;;;;;29.80;16.13;;;-0.40;77.30;;;;;;4956894;28;20211;-74
2022/12/14 05:34:04;;;;;;;30.70;16.88;;;-0.40;77.40;;;;;;4959803;29;20214;-73
2022/12/14 05:36:29;;;;;;;32.73;16.70;;;-0.40;77.60;;;;;;4965061;29;20196;-75
2022/12/14 05:38:55;;;;;;;35.07;17.30;;;-0.40;77.40;;;;;;4963938;29;20188;-75
2022/12/14 05:41:20;;;;;;;40.67;18.97;;;-0.40;77.60;;;;;;4951191;28;20230;-74
2022/12/14 05:43:46;;;;;;;31.90;16.57;;;-0.40;77.80;;;;;;5009863;28;20252;-74
2022/12/14 05:46:12;;;;;;;37.33;18.47;;;-0.40;77.80;;;;;;5027109;28;20199;-72
2022/12/14 05:48:37;;;;;;;36.27;16.57;;;-0.50;78.00;;;;;;5024135;28;20641;-72
2022/12/14 05:51:08;;;;;;;38.93;17.83;;;-0.60;78.10;;;;;;5021373;28;20672;-73
2022/12/14 05:53:35;;;;;;;38.95;18.67;;;-0.50;78.40;;;;;;5012041;28;20233;-74
2022/12/14 05:56:01;;;;;;;38.45;18.35;;;-0.40;78.90;;;;;;5017755;28;20185;-75
2022/12/14 05:58:26;;;;;;;38.60;18.17;;;-0.30;78.40;;;;;;5016781;28;20683;-74
2022/12/14 06:00:52;;;;;;;35.97;17.77;;;-0.40;78.60;;;;;;5020199;28;20206;-74
2022/12/14 06:03:17;;;;;;;35.87;17.43;;;-0.40;78.60;;;;;;5020829;28;20272;-75
2022/12/14 06:05:43;;;;;;;40.90;19.17;;;-0.40;78.70;;;;;;5022108;28;20264;-72
2022/12/14 06:08:09;;;;;;;35.33;19.43;;;-0.40;78.70;;;;;;5022558;28;20663;-73
2022/12/14 06:10:34;;;;;;;39.63;18.80;;;-0.50;79.00;;;;;;5026491;28;20204;-74
2022/12/14 06:13:00;;;;;;;38.90;19.33;;;-0.60;79.50;;;;;;5023020;28;20280;-75
2022/12/14 06:15:27;;;;;;;45.37;19.07;;;-0.70;80.00;;;;;;5033768;28;20189;-75
2022/12/14 06:17:52;;;;;;;41.42;18.75;;;-0.70;80.50;;;;;;5034584;28;20173;-74
2022/12/14 06:20:18;;;;;;;41.93;19.60;;;-0.70;80.60;;;;;;5029432;28;20232;-75
2022/12/14 06:22:43;;;;;;;43.33;19.93;;;-0.60;80.90;;;;;;5022451;28;20216;-75
2022/12/14 06:25:09;;;;;;;39.30;19.00;;;-0.60;80.90;;;;;;5035616;28;20222;-74
2022/12/14 06:27:34;;;;;;;42.73;20.43;;;-0.60;81.10;;;;;;5024754;28;20208;-75
2022/12/14 06:30:00;;;;;;;41.33;19.10;;;-0.60;81.10;;;;;;5031095;28;20209;-75
2022/12/14 06:32:26;;;;;;;45.80;20.53;;;-0.70;81.20;;;;;;5024418;28;20177;-75
2022/12/14 06:34:51;;;;;;;44.27;19.83;;;-0.70;81.50;;;;;;5028849;28;20181;-75
2022/12/14 06:37:17;;;;;;;49.43;21.07;;;-0.60;81.80;;;;;;5026601;28;20272;-75
2022/12/14 06:39:43;;;;;;;47.17;20.65;;;-0.70;81.90;;;;;;5030404;28;20201;-74
2022/12/14 06:42:09;;;;;;;47.20;20.70;;;-0.70;82.40;;;;;;5031073;28;20255;-75
2022/12/14 06:44:34;;;;;;;53.10;23.83;;;-0.80;83.10;;;;;;5028774;28;20188;-75
2022/12/14 06:47:00;;;;;;;44.07;21.93;;;-0.80;83.70;;;;;;5030059;28;20191;-76
2022/12/14 06:49:27;;;;;;;49.38;23.00;;;-0.80;84.40;;;;;;5031502;28;20296;-75
2022/12/14 06:51:52;;;;;;;51.73;24.33;;;-0.80;85.00;;;;;;5030233;28;20287;-74
2022/12/14 06:54:18;;;;;;;49.00;21.67;;;-0.90;85.50;;;;;;5028677;28;20214;-74
2022/12/14 06:56:46;;;;;;;49.92;23.20;;;-0.70;85.90;;;;;;5036219;28;20177;-73
2022/12/14 06:59:12;;;;;;;53.70;22.90;;;-0.70;86.50;;;;;;5030419;28;20182;-74
2022/12/14 07:01:39;;;;;;;46.67;22.45;;;-0.70;86.50;;;;;;5031267;28;20733;-75
2022/12/14 07:04:05;;;;;;;53.25;23.00;;;-0.60;86.90;;;;;;5037205;28;20197;-75
2022/12/14 07:06:34;;;;;;;52.80;23.63;;;-0.60;87.00;;;;;;5030009;28;20596;-75
2022/12/14 07:09:00;;;;;;;53.70;23.98;;;-0.70;87.10;;;;;;5024851;28;20193;-73
2022/12/14 07:11:27;;;;;;;49.60;22.98;;;-0.70;87.40;;;;;;5026616;28;20217;-75
2022/12/14 07:13:53;;;;;;;48.45;23.50;;;-0.70;87.70;;;;;;5023878;28;20797;-74
2022/12/14 07:16:22;;;;;;;51.08;23.17;;;-0.70;87.70;;;;;;5027598;28;20825;-74
2022/12/14 07:18:49;;;;;;;52.17;23.58;;;-0.70;87.70;;;;;;5023146;28;20185;-75
2022/12/14 07:21:16;;;;;;;55.53;26.08;;;-0.70;88.00;;;;;;5022132;28;20261;-74
2022/12/14 07:23:44;;;;;;;61.55;26.05;;;-0.60;88.30;;;;;;5022002;28;20254;-74
2022/12/14 07:26:11;;;;;;;54.30;25.15;;;-0.60;88.40;;;;;;5024879;28;20696;-76
2022/12/14 07:28:37;;;;;;;58.45;25.40;;;-0.60;88.40;;;;;;5034158;28;20185;-75
2022/12/14 07:31:06;;;;;;;55.22;24.10;;;-0.60;88.40;;;;;;5031975;28;20209;-75
2022/12/14 07:33:32;;;;;;;57.30;24.83;;;-0.50;88.40;;;;;;5023421;28;20205;-75
2022/12/14 07:36:12;;;;;;;50.77;24.13;;;-0.50;88.30;;;;;;5026012;28;20185;-75
2022/12/14 07:38:39;;;;;;;50.70;23.38;;;-0.40;88.10;;;;;;5024237;28;20416;-73
2022/12/14 07:41:08;;;;;;;44.97;22.15;;;-0.50;87.80;;;;;;5026571;28;20296;-75
2022/12/14 07:43:35;;;;;;;58.65;23.80;;;-0.50;87.80;;;;;;5021904;28;20201;-74
2022/12/14 07:46:02;;;;;;;56.75;23.17;;;-0.40;88.00;;;;;;5020722;28;20186;-75
2022/12/14 07:48:29;;;;;;;51.85;24.20;;;-0.40;88.30;;;;;;5027099;28;20182;-75
2022/12/14 07:50:59;;;;;;;48.90;23.60;;;-0.30;88.10;;;;;;5018776;28;20213;-74
2022/12/14 07:53:25;;;;;;;54.17;23.58;;;-0.20;87.80;;;;;;5021559;28;20221;-73
2022/12/14 07:55:50;;;;;;;46.73;21.63;;;-0.20;87.30;;;;;;5023432;28;20252;-75
2022/12/14 07:58:16;;;;;;;51.53;23.40;;;-0.10;87.10;;;;;;5025175;28;20204;-74
2022/12/14 08:00:41;;;;;;;44.47;21.80;;;0.00;87.00;;;;;;5020855;28;20968;-74
2022/12/14 08:03:07;;;;;;;53.73;24.10;;;0.00;86.90;;;;;;5024539;28;20276;-75
2022/12/14 08:05:33;;;;;;;59.03;23.60;;;0.10;86.60;;;;;;5017523;28;20243;-76
2022/12/14 08:07:58;;;;;;;51.37;23.90;;;0.10;86.30;;;;;;5022190;28;20215;-73
2022/12/14 08:10:24;;;;;;;47.33;23.00;;;0.10;86.30;;;;;;5020144;28;21006;-76
2022/12/14 08:12:49;;;;;;;53.40;23.90;;;0.10;86.20;;;;;;5018267;28;20783;-75
2022/12/14 08:15:15;;;;;;;48.10;22.77;;;0.20;86.00;;;;;;5023121;28;20190;-74
2022/12/14 08:17:41;;;;;;;49.20;22.87;;;0.20;85.50;;;;;;5020939;28;20264;-74
2022/12/14 08:20:07;;;;;;;54.47;23.97;;;0.10;85.00;;;;;;5022606;28;20213;-75
2022/12/14 08:22:32;;;;;;;52.37;23.63;;;0.30;85.50;;;;;;5020677;28;20268;-74
2022/12/14 08:24:58;;;;;;;52.60;23.10;;;0.30;85.20;;;;;;5015779;28;20423;-75
2022/12/14 08:27:23;;;;;;;53.03;24.60;;;0.30;84.70;;;;;;5021933;28;20266;-73
2022/12/14 08:29:49;;;;;;;51.57;23.20;;;0.30;84.60;;;;;;5016251;28;21181;-74
2022/12/14 08:32:14;;;;;;;51.90;23.37;;;0.40;84.70;;;;;;5026381;28;20257;-75
2022/12/14 08:34:40;;;;;;;46.87;22.63;;;0.40;84.70;;;;;;5021175;28;20259;-75
2022/12/14 08:37:05;;;;;;;49.93;23.60;;;0.50;84.60;;;;;;5023157;28;20181;-73
2022/12/14 08:39:31;;;;;;;60.57;25.00;;;0.50;84.00;;;;;;5018413;28;20269;-75
2022/12/14 08:41:56;;;;;;;49.33;23.53;;;0.50;83.70;;;;;;5021807;28;20208;-76
2022/12/14 08:44:22;;;;;;;53.30;25.80;;;0.50;83.60;;;;;;5024148;28;20206;-74
2022/12/14 08:46:47;;;;;;;52.93;24.37;;;0.50;83.40;;;;;;5018414;28;20677;-77
2022/12/14 08:49:13;;;;;;;49.23;23.37;;;0.50;83.60;;;;;;5020992;28;20664;-74
2022/12/14 08:51:39;;;;;;;43.50;21.00;;;0.60;83.30;;;;;;5018160;28;20241;-75
2022/12/14 08:54:04;;;;;;;43.10;21.23;;;0.60;83.10;;;;;;5018916;28;20202;-75
2022/12/14 08:56:30;;;;;;;47.90;23.83;;;0.60;83.00;;;;;;5013066;28;20178;-75
2022/12/14 08:58:56;;;;;;;49.83;23.70;;;0.60;82.80;;;;;;5026140;28;20341;-75
2022/12/14 09:01:25;;;;;;;51.40;22.45;;;0.60;82.80;;;;;;5029511;28;20236;-75
2022/12/14 09:03:50;;;;;;;48.70;24.92;;;0.70;83.00;;;;;;5025159;28;20599;-75
2022/12/14 09:06:22;;;;;;;51.77;24.97;;;0.70;83.00;;;;;;5019159;28;20209;-75
2022/12/14 09:08:48;;;;;;;47.30;22.48;;;0.80;83.30;;;;;;5026763;28;20189;-74
2022/12/14 09:11:16;;;;;;;49.85;23.05;;;0.90;83.40;;;;;;5018788;28;20759;-75
2022/12/14 09:13:42;;;;;;;58.13;24.95;;;0.90;83.60;;;;;;5018668;28;20221;-74
2022/12/14 09:16:16;;;;;;;52.97;24.00;;;0.90;83.70;;;;;;5022092;28;20196;-75
2022/12/14 09:18:43;;;;;;;52.20;24.35;;;0.80;83.80;;;;;;5021065;28;20211;-76
2022/12/14 09:21:09;;;;;;;48.25;22.85;;;0.70;84.60;;;;;;5024196;28;20237;-75
2022/12/14 09:23:36;;;;;;;52.00;25.13;;;0.60;85.00;;;;;;5019115;28;20234;-76
2022/12/14 09:26:04;;;;;;;57.15;25.95;;;0.50;85.50;;;;;;5012551;28;20213;-74
2022/12/14 09:28:32;;;;;;;60.47;26.45;;;0.40;85.50;;;;;;5021821;28;20344;-75
2022/12/14 09:30:59;;;;;;;52.17;24.45;;;0.40;85.70;;;;;;5022267;28;20209;-74
2022/12/14 09:33:26;;;;;;;60.92;26.65;;;0.40;86.50;;;;;;5021957;28;20220;-74
2022/12/14 09:35:51;;;;;;;57.20;26.65;;;0.40;86.90;;;;;;5028291;28;20242;-75
2022/12/14 09:38:19;;;;;;;56.07;25.90;;;0.40;87.10;;;;;;5026536;28;20248;-75
2022/12/14 09:40:54;;;;;;;53.85;25.08;;;0.30;87.30;;;;;;5019193;28;20542;-74
2022/12/14 09:44:07;;;;;;;52.83;25.17;;;0.30;87.40;;;;;;5024276;28;20221;-75
2022/12/14 09:47:01;;;;;;;61.42;26.55;;;0.30;87.70;;;;;;4988427;28;20190;-75
2022/12/14 09:49:54;;;;;;;53.40;25.80;;;0.40;88.10;;;;;;5024005;28;20189;-75
2022/12/14 09:52:24;;;;;;;54.72;25.90;;;0.40;88.30;;;;;;5014607;28;20225;-75
2022/12/14 09:54:51;;;;;;;54.20;25.40;;;0.40;88.60;;;;;;5026271;28;20184;-75
2022/12/14 09:57:38;;;;;;;55.88;24.92;;;0.50;88.40;;;;;;5019905;28;20181;-75
2022/12/14 10:00:18;;;;;;;59.55;26.20;;;0.50;88.30;;;;;;5020937;28;20204;-75
2022/12/14 10:03:11;;;;;;;51.22;24.85;;;0.50;88.40;;;;;;5020370;28;20236;-75
2022/12/14 10:05:59;;;;;;;64.78;27.45;;;0.50;88.30;;;;;;5023370;28;20564;-74
2022/12/14 10:08:28;;;;;;;61.65;26.75;;;0.50;88.70;;;;;;5018573;28;20185;-75
2022/12/14 10:11:00;;;;;;;61.35;25.70;;;0.50;88.90;;;;;;5025332;28;20627;-76
2022/12/14 10:13:37;;;;;;;58.95;26.35;;;0.50;89.30;;;;;;5016883;28;20212;-73
2022/12/14 10:16:11;;;;;;;60.70;26.75;;;0.50;89.50;;;;;;5020530;28;20238;-75
2022/12/14 10:18:57;;;;;;;58.65;27.48;;;0.50;89.60;;;;;;5020496;28;20626;-75
2022/12/14 10:21:27;;;;;;;65.60;29.05;;;0.40;89.70;;;;;;5026042;28;20217;-75
2022/12/14 10:23:59;;;;;;;68.82;28.33;;;0.40;90.00;;;;;;5021924;28;20184;-76
2022/12/14 10:26:37;;;;;;;62.33;27.85;;;0.40;90.20;;;;;;5015333;28;20200;-75
2022/12/14 10:29:21;;;;;;;70.97;29.65;;;0.30;90.30;;;;;;5018982;28;20271;-74
2022/12/14 10:31:51;;;;;;;66.60;30.00;;;0.30;90.50;;;;;;5022659;28;20731;-76
2022/12/14 10:34:19;;;;;;;71.97;30.23;;;0.20;90.90;;;;;;5019333;28;20213;-74
2022/12/14 10:37:06;;;;;;;61.65;27.75;;;0.20;91.20;;;;;;5018765;28;20190;-75
2022/12/14 10:39:46;;;;;;;68.00;29.13;;;0.30;91.50;;;;;;5017683;28;20564;-75
2022/12/14 10:42:30;;;;;;;65.28;29.50;;;0.40;91.70;;;;;;5021013;28;20188;-74
2022/12/14 10:45:11;;;;;;;65.10;29.30;;;0.50;91.90;;;;;;5016455;28;20586;-74
2022/12/14 10:47:43;;;;;;;60.53;27.17;;;0.60;91.80;;;;;;5014898;28;20178;-74
2022/12/14 10:50:15;;;;;;;65.60;29.05;;;0.60;91.70;;;;;;5014618;28;20220;-75
2022/12/14 10:52:43;;;;;;;65.40;29.83;;;0.60;91.40;;;;;;5023554;28;20189;-75
2022/12/14 10:55:19;;;;;;;58.67;27.90;;;0.60;91.10;;;;;;5036342;28;20736;-75
2022/12/14 10:57:44;;;;;;;65.75;30.17;;;0.60;91.00;;;;;;5020096;28;20196;-75
2022/12/14 11:00:17;;;;;;;74.70;30.43;;;0.60;90.80;;;;;;5019652;28;20217;-76
2022/12/14 11:02:49;;;;;;;63.08;27.45;;;0.70;90.70;;;;;;5021923;28;20232;-75
2022/12/14 11:05:23;;;;;;;68.93;29.58;;;0.70;90.60;;;;;;5027599;28;20195;-77
2022/12/14 11:07:49;;;;;;;69.35;31.45;;;0.70;90.60;;;;;;5020173;28;20182;-76
2022/12/14 11:10:19;;;;;;;70.40;29.43;;;0.80;90.60;;;;;;5027747;28;20216;-74
2022/12/14 11:13:05;;;;;;;73.78;30.88;;;0.90;90.70;;;;;;5023576;28;20201;-75
2022/12/14 11:15:40;;;;;;;60.83;28.00;;;0.90;90.70;;;;;;5027591;28;20527;-74
2022/12/14 11:18:15;;;;;;;65.30;28.90;;;1.00;90.70;;;;;;5032084;28;20423;-75
2022/12/14 11:20:56;;;;;;;56.20;29.05;;;1.10;90.40;;;;;;5035765;28;20201;-74
2022/12/14 11:23:26;;;;;;;68.88;31.90;;;1.10;90.20;;;;;;5034936;28;20188;-74
2022/12/14 11:25:57;;;;;;;62.55;28.80;;;1.10;90.30;;;;;;5039686;28;20923;-74
2022/12/14 11:28:32;;;;;;;65.72;28.65;;;1.10;90.20;;;;;;5030398;28;20707;-73
2022/12/14 11:31:11;;;;;;;65.32;30.27;;;1.10;90.10;;;;;;5030543;28;20239;-76
2022/12/14 11:33:46;;;;;;;62.13;29.13;;;1.10;90.10;;;;;;5026037;28;20234;-75
2022/12/14 11:36:25;;;;;;;69.22;29.80;;;1.10;90.10;;;;;;5022372;28;20185;-76
2022/12/14 11:39:02;;;;;;;63.72;28.00;;;1.10;90.10;;;;;;5023359;28;20181;-74
2022/12/14 11:41:38;;;;;;;72.15;33.92;;;1.20;90.10;;;;;;5020566;28;20211;-75
2022/12/14 11:44:16;;;;;;;66.35;30.20;;;1.20;90.10;;;;;;5021585;28;20205;-76
2022/12/14 11:46:55;;;;;;;59.88;28.00;;;1.20;90.10;;;;;;5023112;28;20185;-76
2022/12/14 11:49:41;;;;;;;68.85;30.13;;;1.30;90.10;;;;;;5023362;28;20324;-74
2022/12/14 11:52:39;;;;;;;62.20;28.67;;;1.40;90.10;;;;;;5025566;28;20228;-75
2022/12/14 11:55:13;;;;;;;66.03;30.40;;;1.40;89.90;;;;;;5016338;28;20198;-75
2022/12/14 11:57:51;;;;;;;70.78;32.20;;;1.30;89.20;;;;;;5019584;28;20181;-76
2022/12/14 12:00:37;;;;;;;69.18;31.85;;;1.20;89.60;;;;;;5026136;28;20217;-76
2022/12/14 12:03:24;;;;;;;72.97;32.25;;;1.10;90.00;;;;;;5023539;28;20224;-76
2022/12/14 12:05:51;;;;;;;76.32;34.10;;;1.10;90.40;;;;;;5024991;28;20185;-76
2022/12/14 12:08:26;;;;;;;76.72;32.72;;;1.00;90.50;;;;;;5029216;28;20189;-74
2022/12/14 12:10:58;;;;;;;71.75;33.80;;;0.90;90.70;;;;;;5023799;28;20298;-78
2022/12/14 12:13:44;;;;;;;74.95;33.20;;;0.90;90.90;;;;;;5017236;28;20228;-76
2022/12/14 12:16:10;;;;;;;79.68;34.42;;;0.90;90.90;;;;;;5025011;28;20759;-75
2022/12/14 12:18:45;;;;;;;72.05;32.55;;;0.90;90.90;;;;;;5026338;28;20528;-74
2022/12/14 12:21:13;;;;;;;74.85;32.20;;;0.80;91.00;;;;;;5023874;28;20906;-74
2022/12/14 12:23:51;;;;;;;83.40;33.70;;;0.60;91.10;;;;;;5031400;28;20217;-75
2022/12/14 12:26:29;;;;;;;75.90;32.50;;;0.60;91.40;;;;;;5021937;28;20285;-76
2022/12/14 12:29:04;;;;;;;72.03;33.13;;;0.50;91.80;;;;;;5024472;28;20609;-75
2022/12/14 12:31:38;;;;;;;83.68;35.38;;;0.50;92.10;;;;;;5027024;28;20213;-75
2022/12/14 12:34:13;;;;;;;76.95;34.92;;;0.50;92.20;;;;;;5029404;28;20211;-76
2022/12/14 12:36:39;;;;;;;82.78;34.05;;;0.50;92.30;;;;;;5019480;28;20582;-75
2022/12/14 12:39:14;;;;;;;80.23;34.60;;;0.70;92.30;;;;;;5028003;28;20184;-76
2022/12/14 12:41:51;;;;;;;76.65;33.75;;;0.70;92.20;;;;;;5022910;28;20306;-77
2022/12/14 12:44:26;;;;;;;70.78;32.67;;;0.90;92.20;;;;;;5028762;28;20287;-76
2022/12/14 12:47:01;;;;;;;78.43;33.03;;;1.00;92.00;;;;;;5022700;28;20232;-76
2022/12/14 12:49:26;;;;;;;75.38;31.98;;;1.00;91.60;;;;;;5025238;28;20200;-75
2022/12/14 12:52:01;;;;;;;78.17;32.30;;;0.90;91.30;;;;;;5019714;28;20189;-73
2022/12/14 12:54:39;;;;;;;83.20;32.58;;;0.90;91.00;;;;;;5021477;28;20292;-76
2022/12/14 12:57:07;;;;;;;73.85;32.80;;;1.00;91.20;;;;;;5023898;28;20193;-75
2022/12/14 12:59:37;;;;;;;65.78;31.80;;;1.00;91.10;;;;;;5017456;28;20925;-75
2022/12/14 13:02:34;;;;;;;72.80;32.17;;;1.00;91.00;;;;;;5020888;28;20185;-76
2022/12/14 13:05:10;;;;;;;77.75;33.83;;;0.90;90.50;;;;;;5014537;28;20186;-77
2022/12/14 13:07:48;;;;;;;75.50;32.65;;;0.90;90.80;;;;;;5022432;28;20169;-74
2022/12/14 13:10:33;;;;;;;78.20;33.70;;;0.80;90.90;;;;;;5021491;28;20201;-74